Time;durP1;ratioP1;P1;durP2;ratioP2;P2;SDS_P1;SDS_P2;PMS_P1;PMS_P2;Temp;Humidity;BMP_temperature;BMP_pressure;BME280_temperature;BME280_humidity;BME280_pressure;Samples;Min_cycle;Max_cycle;Signal;HPM_P1;HPM_P2
2023/06/20 00:01:32;;;;;;;1.23;1.05;;;;;;;13.54;100.00;91152.16;5033592;28;20041;-68
2023/06/20 00:03:57;;;;;;;0.88;0.88;;;;;;;13.56;100.00;91155.28;5033397;28;20534;-68
2023/06/20 00:06:22;;;;;;;1.13;1.13;;;;;;;13.54;100.00;91158.28;5033652;28;20168;-68
2023/06/20 00:08:48;;;;;;;0.93;0.93;;;;;;;13.53;100.00;91153.25;5033640;28;20034;-68
2023/06/20 00:11:14;;;;;;;8.45;2.03;;;;;;;13.50;100.00;91152.03;5033510;28;20450;-68
2023/06/20 00:13:42;;;;;;;1.75;1.65;;;;;;;13.36;100.00;91154.13;5033481;28;20045;-68
2023/06/20 00:16:08;;;;;;;2.08;1.98;;;;;;;13.36;100.00;91152.22;5033726;28;20164;-68
2023/06/20 00:18:34;;;;;;;6.93;3.67;;;;;;;13.35;100.00;91153.34;5033460;28;20514;-68
2023/06/20 00:20:59;;;;;;;1.42;1.20;;;;;;;13.36;100.00;91152.22;5032238;28;20029;-67
2023/06/20 00:23:24;;;;;;;1.40;1.40;;;;;;;13.28;100.00;91144.25;5033270;28;20108;-68
2023/06/20 00:25:50;;;;;;;1.30;1.27;;;;;;;13.29;100.00;91149.28;5033280;28;20522;-68
2023/06/20 00:28:18;;;;;;;2.58;1.92;;;;;;;13.23;100.00;91147.84;5032117;28;20041;-68
2023/06/20 00:30:44;;;;;;;0.93;0.93;;;;;;;13.26;100.00;91151.81;5033366;28;20076;-68
2023/06/20 00:33:10;;;;;;;1.83;1.73;;;;;;;13.19;100.00;91147.72;5033227;28;20068;-68
2023/06/20 00:35:37;;;;;;;1.20;1.20;;;;;;;13.15;100.00;91141.41;5033177;28;20069;-68
2023/06/20 00:38:02;;;;;;;1.10;1.00;;;;;;;13.15;100.00;91140.63;5033089;28;20415;-68
2023/06/20 00:40:28;;;;;;;1.50;1.50;;;;;;;12.98;100.00;91136.13;5033049;28;20569;-69
2023/06/20 00:42:53;;;;;;;13.85;3.10;;;;;;;12.96;100.00;91142.88;5032909;28;20037;-69
2023/06/20 00:45:32;;;;;;;1.42;1.35;;;;;;;12.87;100.00;91157.03;5032904;28;20045;-68
2023/06/20 00:47:59;;;;;;;3.03;2.03;;;;;;;12.87;100.00;91146.34;5032901;28;20045;-69
2023/06/20 00:50:27;;;;;;;1.30;1.20;;;;;;;12.86;100.00;91152.00;5032542;28;20056;-69
2023/06/20 00:52:56;;;;;;;2.08;1.77;;;;;;;12.78;100.00;91140.25;5032290;28;20124;-69
2023/06/20 00:55:22;;;;;;;1.25;1.25;;;;;;;12.79;100.00;91141.03;5032637;28;20076;-69
2023/06/20 00:57:48;;;;;;;2.17;2.08;;;;;;;12.72;100.00;91128.16;5032735;28;20068;-69
2023/06/20 01:00:14;;;;;;;1.65;1.55;;;;;;;12.71;100.00;91137.25;5032525;28;20095;-69
2023/06/20 01:02:46;;;;;;;4.57;1.85;;;;;;;12.69;100.00;91142.13;5032417;28;20416;-69
2023/06/20 01:05:16;;;;;;;2.33;1.38;;;;;;;12.68;100.00;91143.22;5032265;28;20042;-69
2023/06/20 01:08:02;;;;;;;1.58;1.48;;;;;;;12.67;100.00;91141.66;5032353;28;20087;-69
2023/06/20 01:10:56;;;;;;;1.88;1.30;;;;;;;12.66;100.00;91142.75;5032317;28;20072;-69
2023/06/20 01:13:43;;;;;;;1.63;1.52;;;;;;;12.61;100.00;91140.22;5032382;28;20045;-69
2023/06/20 01:16:42;;;;;;;1.63;1.52;;;;;;;12.60;100.00;91141.34;5032194;28;20397;-68
2023/06/20 01:19:28;;;;;;;2.13;1.35;;;;;;;12.57;100.00;91142.75;5032220;28;20034;-68
2023/06/20 01:22:02;;;;;;;1.27;1.27;;;;;;;12.58;100.00;91138.19;5032236;28;20136;-68
2023/06/20 01:24:29;;;;;;;1.60;1.50;;;;;;;12.55;100.00;91136.16;5031973;28;20049;-69
2023/06/20 01:27:01;;;;;;;2.75;1.65;;;;;;;12.50;100.00;91141.66;5031965;28;20091;-67
2023/06/20 01:29:26;;;;;;;3.08;1.58;;;;;;;12.49;100.00;91140.09;5031940;28;20041;-68
2023/06/20 01:31:57;;;;;;;1.38;1.27;;;;;;;12.44;100.00;91142.91;5031931;28;20049;-68
2023/06/20 01:34:30;;;;;;;2.30;2.20;;;;;;;12.46;100.00;91136.16;5031831;28;20099;-69
2023/06/20 01:36:58;;;;;;;1.60;1.50;;;;;;;12.46;100.00;91135.38;5031815;28;20045;-68
2023/06/20 01:39:28;;;;;;;1.13;1.13;;;;;;;12.46;100.00;91146.03;5031824;28;20187;-66
2023/06/20 01:41:57;;;;;;;2.20;1.95;;;;;;;12.49;100.00;91134.78;5031636;28;20037;-67
2023/06/20 01:44:26;;;;;;;1.52;1.42;;;;;;;12.53;100.00;91138.38;5031592;28;20057;-67
2023/06/20 01:46:55;;;;;;;1.50;1.42;;;;;;;12.61;100.00;91132.22;5031773;28;20108;-67
2023/06/20 01:49:23;;;;;;;1.17;1.08;;;;;;;12.58;100.00;91138.97;5032287;28;20038;-67
2023/06/20 01:51:55;;;;;;;11.15;2.47;;;;;;;12.56;100.00;91141.19;5033307;28;20131;-67
2023/06/20 01:54:22;;;;;;;1.00;1.00;;;;;;;12.49;100.00;91135.56;5015728;28;20026;-68
2023/06/20 01:56:50;;;;;;;1.65;1.58;;;;;;;12.49;100.00;91145.44;5016195;28;20377;-68
2023/06/20 01:59:17;;;;;;;3.33;1.20;;;;;;;12.45;100.00;91144.47;5021177;28;20032;-68
2023/06/20 02:01:45;;;;;;;1.40;1.30;;;;;;;12.42;100.00;91142.44;5022455;28;20388;-68
2023/06/20 02:04:11;;;;;;;2.30;2.00;;;;;;;12.40;100.00;91141.97;5021085;28;20046;-67
2023/06/20 02:06:38;;;;;;;2.53;1.50;;;;;;;12.30;100.00;91145.72;5020900;28;20144;-67
2023/06/20 02:09:04;;;;;;;0.95;0.95;;;;;;;12.31;100.00;91134.00;5014950;28;20026;-67
2023/06/20 02:11:30;;;;;;;0.82;0.82;;;;;;;12.30;100.00;91143.84;5012106;28;20022;-67
2023/06/20 02:13:58;;;;;;;2.35;2.00;;;;;;;12.30;100.00;91140.38;5012064;28;20049;-67
2023/06/20 02:16:25;;;;;;;1.20;1.15;;;;;;;12.30;100.00;91153.72;5012034;28;20041;-67
2023/06/20 02:18:50;;;;;;;0.95;0.95;;;;;;;12.39;100.00;91153.75;5012063;28;20026;-68
2023/06/20 02:21:23;;;;;;;1.42;1.33;;;;;;;12.44;100.00;91153.59;5011913;28;20507;-68
2023/06/20 02:23:51;;;;;;;1.70;1.60;;;;;;;12.39;100.00;91153.75;5010090;28;20419;-69
2023/06/20 02:26:19;;;;;;;1.58;1.48;;;;;;;12.39;100.00;91162.53;5011838;28;20271;-69
2023/06/20 02:28:47;;;;;;;1.23;1.13;;;;;;;12.36;100.00;91165.84;5011239;28;20033;-69
2023/06/20 02:31:20;;;;;;;1.45;1.40;;;;;;;12.33;100.00;91158.47;5011810;28;20080;-69
2023/06/20 02:33:48;;;;;;;4.13;2.08;;;;;;;12.31;100.00;91155.31;5011829;28;20034;-69
2023/06/20 02:36:14;;;;;;;1.48;1.35;;;;;;;12.30;100.00;91164.41;5011898;28;20030;-68
2023/06/20 02:38:40;;;;;;;1.65;1.55;;;;;;;12.25;100.00;91152.00;5012214;28;20041;-68
2023/06/20 02:41:05;;;;;;;1.02;1.02;;;;;;;12.30;100.00;91161.72;5012140;28;20100;-68
2023/06/20 02:43:31;;;;;;;2.67;1.75;;;;;;;12.33;100.00;91152.34;5011708;28;20088;-70
2023/06/20 02:46:14;;;;;;;2.05;1.17;;;;;;;12.32;100.00;91156.09;5011815;28;20090;-69
2023/06/20 02:48:52;;;;;;;1.52;1.42;;;;;;;12.30;100.00;91153.72;5012108;28;20446;-69
2023/06/20 02:51:33;;;;;;;1.35;1.23;;;;;;;12.34;100.00;91152.03;5011727;28;20041;-69
2023/06/20 02:54:09;;;;;;;1.92;1.83;;;;;;;12.40;100.00;91152.66;5015201;28;20033;-69
2023/06/20 02:56:36;;;;;;;2.50;1.27;;;;;;;12.34;100.00;91160.03;5019991;28;20025;-70
2023/06/20 02:59:06;;;;;;;2.50;2.30;;;;;;;12.39;100.00;91159.09;5020310;28;20550;-67
2023/06/20 03:01:33;;;;;;;0.95;0.95;;;;;;;12.40;100.00;91164.09;5014036;28;20049;-67
2023/06/20 03:04:03;;;;;;;2.45;2.22;;;;;;;12.39;100.00;91167.88;5011337;28;20050;-67
2023/06/20 03:06:28;;;;;;;1.10;1.10;;;;;;;12.45;100.00;91169.28;5011535;28;20045;-66
2023/06/20 03:08:57;;;;;;;2.42;1.60;;;;;;;12.44;100.00;91164.25;5011813;28;20018;-65
2023/06/20 03:11:23;;;;;;;0.93;0.93;;;;;;;12.46;100.00;91167.38;5011650;28;20492;-66
2023/06/20 03:13:48;;;;;;;13.02;1.80;;;;;;;12.43;100.00;91168.81;5011552;28;20018;-67
2023/06/20 03:16:13;;;;;;;0.90;0.90;;;;;;;12.40;100.00;91171.31;5014950;28;20104;-66
2023/06/20 03:18:40;;;;;;;1.58;1.48;;;;;;;12.39;100.00;91173.22;5015437;28;20459;-66
2023/06/20 03:21:05;;;;;;;2.15;1.95;;;;;;;12.38;100.00;91181.53;5015108;28;20033;-65
2023/06/20 03:23:31;;;;;;;1.48;1.38;;;;;;;12.44;100.00;91174.94;5014231;28;20026;-66
2023/06/20 03:25:58;;;;;;;0.90;0.90;;;;;;;12.46;100.00;91176.19;5015126;28;20057;-67
2023/06/20 03:28:24;;;;;;;2.00;1.90;;;;;;;12.51;100.00;91175.25;5015537;28;20084;-66
2023/06/20 03:30:50;;;;;;;1.90;1.80;;;;;;;12.67;100.00;91187.03;5014502;28;20216;-66
2023/06/20 03:33:15;;;;;;;2.08;1.42;;;;;;;12.76;100.00;91182.47;5014894;28;20096;-67
2023/06/20 03:35:41;;;;;;;1.90;1.63;;;;;;;12.78;100.00;91192.81;5014862;28;20026;-66
2023/06/20 03:38:06;;;;;;;1.35;1.35;;;;;;;12.77;100.00;91189.38;5015147;28;20041;-67
2023/06/20 03:40:32;;;;;;;1.40;1.40;;;;;;;12.88;100.00;91185.28;5015134;28;20038;-67
2023/06/20 03:42:57;;;;;;;1.27;1.27;;;;;;;12.93;100.00;91187.00;5014564;28;20109;-69
2023/06/20 03:45:23;;;;;;;3.15;2.40;;;;;;;12.93;100.00;91195.00;5014609;28;20053;-69
2023/06/20 03:47:48;;;;;;;3.15;1.73;;;;;;;12.92;100.00;91190.00;5014715;28;20033;-69
2023/06/20 03:50:14;;;;;;;1.83;1.73;;;;;;;12.93;100.00;91186.22;5014711;28;20026;-69
2023/06/20 03:52:39;;;;;;;1.63;1.52;;;;;;;12.89;100.00;91188.75;5015097;28;20021;-69
2023/06/20 03:55:05;;;;;;;3.05;1.83;;;;;;;12.99;100.00;91195.66;5014452;28;20022;-68
2023/06/20 03:57:31;;;;;;;1.58;1.40;;;;;;;13.01;100.00;91198.78;5014772;28;20034;-69
2023/06/20 03:59:56;;;;;;;1.13;1.13;;;;;;;13.05;100.00;91202.41;5014697;28;20041;-69
2023/06/20 04:02:21;;;;;;;2.30;1.98;;;;;;;13.10;100.00;91202.25;5014526;28;20142;-68
2023/06/20 04:04:49;;;;;;;1.45;1.35;;;;;;;13.20;100.00;91201.94;5014517;28;20125;-68
2023/06/20 04:07:18;;;;;;;2.05;1.85;;;;;;;13.32;100.00;91191.38;5014703;28;20030;-69
2023/06/20 04:09:49;;;;;;;1.30;1.27;;;;;;;13.42;100.00;91192.94;5014925;28;20041;-68
2023/06/20 04:12:15;;;;;;;1.73;1.63;;;;;;;13.54;100.00;91202.94;5014602;28;20076;-67
2023/06/20 04:14:40;;;;;;;0.95;0.95;;;;;;;13.60;100.00;91199.78;5014318;28;20030;-67
2023/06/20 04:17:06;;;;;;;1.58;1.48;;;;;;;13.68;100.00;91198.19;5014422;28;20117;-67
2023/06/20 04:19:33;;;;;;;1.63;1.52;;;;;;;13.75;100.00;91198.50;5013903;28;20050;-70
2023/06/20 04:21:59;;;;;;;1.13;1.02;;;;;;;13.86;100.00;91202.34;5014370;28;20026;-68
2023/06/20 04:24:24;;;;;;;1.30;1.30;;;;;;;14.05;100.00;91205.44;5013979;28;20083;-68
2023/06/20 04:26:49;;;;;;;1.25;1.25;;;;;;;14.24;100.00;91202.34;5014209;28;20034;-70
2023/06/20 04:29:15;;;;;;;1.10;1.10;;;;;;;14.48;100.00;91204.41;5014272;28;20053;-70
2023/06/20 04:31:41;;;;;;;1.55;1.45;;;;;;;14.59;100.00;91213.66;5014020;28;20045;-68
2023/06/20 04:34:06;;;;;;;1.35;1.35;;;;;;;14.70;100.00;91203.34;5013808;28;20030;-66
2023/06/20 04:36:34;;;;;;;1.40;1.25;;;;;;;14.80;100.00;91200.25;5014044;28;20037;-67
2023/06/20 04:38:59;;;;;;;1.13;0.90;;;;;;;14.93;100.00;91206.47;5013823;28;20523;-68
2023/06/20 04:41:25;;;;;;;2.13;1.05;;;;;;;14.99;100.00;91205.16;5013704;28;20038;-66
2023/06/20 04:43:50;;;;;;;0.75;0.75;;;;;;;15.20;100.00;91205.91;5013718;28;20178;-66
2023/06/20 04:46:16;;;;;;;1.17;1.17;;;;;;;15.28;100.00;91206.94;5014110;28;20037;-66
2023/06/20 04:48:42;;;;;;;1.10;1.10;;;;;;;15.36;100.00;91197.25;5012911;28;20045;-66
2023/06/20 04:51:09;;;;;;;1.85;1.48;;;;;;;15.43;100.00;91213.56;5013564;28;20037;-67
2023/06/20 04:53:35;;;;;;;1.65;1.55;;;;;;;15.53;100.00;91213.94;5013317;28;20407;-66
2023/06/20 04:56:01;;;;;;;1.15;1.15;;;;;;;15.74;100.00;91216.59;5013529;28;20518;-68
2023/06/20 04:58:28;;;;;;;6.13;1.83;;;;;;;15.91;100.00;91218.28;5013349;28;20492;-68
2023/06/20 05:00:57;;;;;;;0.98;0.98;;;;;;;16.08;100.00;91217.31;5013475;28;20034;-67
2023/06/20 05:03:23;;;;;;;2.95;1.80;;;;;;;16.33;100.00;91221.56;5013230;28;20087;-66
2023/06/20 05:05:49;;;;;;;1.35;1.25;;;;;;;16.53;100.00;91221.78;5013175;28;20045;-67
2023/06/20 05:08:14;;;;;;;1.10;1.10;;;;;;;16.65;100.00;91219.88;5013172;28;20026;-67
2023/06/20 05:10:40;;;;;;;2.00;1.80;;;;;;;16.81;100.00;91217.31;5013365;28;20026;-67
2023/06/20 05:13:05;;;;;;;1.00;1.00;;;;;;;16.75;100.00;91218.66;5013200;28;20029;-68
2023/06/20 05:15:30;;;;;;;1.05;1.05;;;;;;;16.87;100.00;91204.41;5013047;28;20109;-67
2023/06/20 05:17:56;;;;;;;1.52;1.45;;;;;;;16.96;100.00;91213.13;5013092;28;20455;-67
2023/06/20 05:20:21;;;;;;;1.30;1.23;;;;;;;17.07;100.00;91208.84;5013229;28;20026;-67
2023/06/20 05:22:47;;;;;;;1.48;1.40;;;;;;;17.27;100.00;91217.84;5012945;28;20018;-68
2023/06/20 05:25:12;;;;;;;2.25;2.15;;;;;;;17.42;100.00;91213.66;5012924;28;20435;-68
2023/06/20 05:27:38;;;;;;;2.40;1.48;;;;;;;17.71;100.00;91213.31;5012807;28;20149;-67
2023/06/20 05:30:05;;;;;;;2.33;2.10;;;;;;;17.97;100.00;91207.44;5012647;28;20551;-67
2023/06/20 05:32:30;;;;;;;1.42;1.33;;;;;;;18.10;100.00;91206.22;5012806;28;20075;-67
2023/06/20 05:34:56;;;;;;;1.33;1.23;;;;;;;18.12;100.00;91209.34;5012618;28;20037;-67
2023/06/20 05:37:21;;;;;;;1.10;1.10;;;;;;;18.48;100.00;91210.22;5012205;28;20037;-67
2023/06/20 05:39:46;;;;;;;1.40;1.30;;;;;;;18.47;100.00;91197.88;5012970;28;20022;-69
2023/06/20 05:42:12;;;;;;;1.55;1.45;;;;;;;18.87;100.00;91210.34;5012502;28;20149;-68
2023/06/20 05:44:37;;;;;;;1.35;1.25;;;;;;;19.15;100.00;91206.34;5012367;28;20034;-68
2023/06/20 05:47:06;;;;;;;2.45;1.90;;;;;;;19.35;100.00;91215.22;5012499;28;20034;-68
2023/06/20 05:49:32;;;;;;;2.00;1.90;;;;;;;19.84;100.00;91214.66;5012617;28;20412;-67
2023/06/20 05:51:57;;;;;;;2.03;1.85;;;;;;;22.57;100.00;91221.50;5012117;28;20496;-67
2023/06/20 05:54:26;;;;;;;1.38;1.30;;;;;;;25.91;100.00;91222.38;5012103;28;20109;-69
2023/06/20 05:56:52;;;;;;;2.20;2.00;;;;;;;29.62;76.51;91219.19;5012378;28;20022;-68
2023/06/20 05:59:18;;;;;;;2.10;1.90;;;;;;;30.99;52.87;91222.31;5012285;28;20029;-68
2023/06/20 06:01:44;;;;;;;4.20;1.83;;;;;;;32.63;47.59;91220.81;5012268;28;20030;-68
2023/06/20 06:04:10;;;;;;;3.67;2.60;;;;;;;33.94;42.12;91220.66;5011953;28;20050;-68
2023/06/20 06:06:36;;;;;;;1.58;1.48;;;;;;;34.33;42.34;91229.53;5012228;28;20034;-68
2023/06/20 06:09:01;;;;;;;1.60;1.50;;;;;;;35.75;39.08;91235.16;5012401;28;20025;-68
2023/06/20 06:11:27;;;;;;;4.85;2.53;;;;;;;37.94;35.08;91222.91;5012166;28;20058;-68
2023/06/20 06:13:52;;;;;;;2.00;1.65;;;;;;;38.88;33.44;91226.03;5012099;28;20044;-68
2023/06/20 06:16:18;;;;;;;2.05;1.75;;;;;;;39.92;31.56;91232.22;5012198;28;20022;-69
2023/06/20 06:18:43;;;;;;;2.88;2.00;;;;;;;39.66;31.28;91234.94;5012208;28;20113;-70
2023/06/20 06:21:09;;;;;;;1.67;1.05;;;;;;;40.53;30.75;91225.94;5012267;28;20036;-70
2023/06/20 06:23:34;;;;;;;1.15;1.05;;;;;;;40.22;30.02;91227.34;5012195;28;20104;-69
2023/06/20 06:26:00;;;;;;;2.72;2.13;;;;;;;38.85;31.41;91227.00;5012183;28;20026;-69
2023/06/20 06:28:28;;;;;;;0.93;0.93;;;;;;;38.73;31.14;91216.16;5013770;28;20033;-68
2023/06/20 06:30:59;;;;;;;2.00;1.63;;;;;;;38.10;32.69;91223.75;5027112;28;20026;-68
2023/06/20 06:33:24;;;;;;;1.75;1.65;;;;;;;36.93;33.09;91230.91;4994525;28;20660;-68
2023/06/20 06:35:50;;;;;;;1.67;1.58;;;;;;;37.34;32.82;91228.63;5026118;28;20108;-69
2023/06/20 06:38:16;;;;;;;21.42;2.25;;;;;;;37.13;31.17;91225.59;5012908;28;20399;-69
2023/06/20 06:40:43;;;;;;;2.45;1.63;;;;;;;37.14;32.27;91235.47;5016651;28;20021;-68
2023/06/20 06:43:09;;;;;;;2.63;2.28;;;;;;;37.08;33.17;91240.09;5014471;28;20545;-68
2023/06/20 06:45:37;;;;;;;1.10;1.10;;;;;;;36.15;32.02;91246.19;5025559;28;20033;-68
2023/06/20 06:48:02;;;;;;;5.55;1.70;;;;;;;35.90;32.80;91235.38;5020142;28;20037;-66
2023/06/20 06:50:27;;;;;;;1.30;1.20;;;;;;;35.71;33.95;91248.41;5021047;28;20025;-67
2023/06/20 06:52:53;;;;;;;1.45;1.20;;;;;;;35.66;33.72;91237.91;5033972;28;20556;-69
2023/06/20 06:55:18;;;;;;;1.27;1.23;;;;;;;38.14;31.01;91238.22;5031252;28;20025;-68
2023/06/20 06:57:44;;;;;;;1.40;1.30;;;;;;;37.50;31.14;91233.78;5034212;28;20021;-68
2023/06/20 07:00:12;;;;;;;1.50;1.38;;;;;;;36.00;32.46;91231.41;5034533;28;20454;-68
2023/06/20 07:02:38;;;;;;;3.85;1.98;;;;;;;35.71;32.94;91235.31;5034380;28;20029;-69
2023/06/20 07:05:05;;;;;;;2.05;1.25;;;;;;;36.83;31.49;91216.28;5034501;28;20128;-68
2023/06/20 07:07:30;;;;;;;1.73;1.63;;;;;;;38.45;30.45;91227.50;5034111;28;20029;-68
2023/06/20 07:09:56;;;;;;;12.07;1.80;;;;;;;40.61;28.72;91227.81;5034207;28;20083;-69
2023/06/20 07:12:21;;;;;;;2.70;1.85;;;;;;;41.10;27.81;91234.41;5032871;28;20080;-69
2023/06/20 07:14:50;;;;;;;1.23;1.20;;;;;;;39.52;29.06;91227.34;5033109;28;20079;-69
2023/06/20 07:17:15;;;;;;;1.90;1.40;;;;;;;40.33;28.80;91233.06;5034435;28;20100;-69
2023/06/20 07:19:43;;;;;;;1.45;1.20;;;;;;;42.41;27.22;91230.78;5034222;28;20116;-69
2023/06/20 07:22:08;;;;;;;2.03;1.52;;;;;;;42.95;26.33;91225.16;5033410;28;20040;-69
2023/06/20 07:24:33;;;;;;;1.90;1.70;;;;;;;41.31;28.00;91231.56;5014155;28;20046;-69
2023/06/20 07:26:59;;;;;;;1.20;1.10;;;;;;;38.61;29.22;91229.06;5026770;28;20025;-67
2023/06/20 07:29:24;;;;;;;1.80;1.55;;;;;;;35.35;31.88;91230.47;5034233;28;20102;-67
2023/06/20 07:31:50;;;;;;;1.83;1.73;;;;;;;35.52;32.45;91227.44;5034124;28;20021;-68
2023/06/20 07:34:15;;;;;;;4.03;2.17;;;;;;;36.09;32.29;91236.94;5034003;28;20029;-68
2023/06/20 07:36:40;;;;;;;1.48;1.15;;;;;;;35.60;33.41;91225.91;5034231;28;20471;-68
2023/06/20 07:39:06;;;;;;;1.88;1.75;;;;;;;36.58;31.29;91228.47;5034000;28;20095;-68
2023/06/20 07:41:32;;;;;;;1.77;1.67;;;;;;;36.56;31.40;91232.94;5034273;28;20025;-68
2023/06/20 07:43:57;;;;;;;1.75;1.65;;;;;;;35.42;32.12;91232.94;5034085;28;20468;-68
2023/06/20 07:46:22;;;;;;;1.65;1.55;;;;;;;37.36;31.24;91229.69;5033760;28;20039;-68
2023/06/20 07:48:50;;;;;;;1.40;1.30;;;;;;;37.20;31.74;91230.03;5033963;28;20037;-68
2023/06/20 07:51:15;;;;;;;1.33;1.20;;;;;;;36.23;31.08;91228.00;5034185;28;20030;-67
2023/06/20 07:53:41;;;;;;;4.22;2.55;;;;;;;37.19;31.44;91226.50;5033770;28;20033;-68
2023/06/20 07:56:07;;;;;;;1.40;1.20;;;;;;;37.45;30.40;91231.66;5033690;28;20108;-67
2023/06/20 07:58:32;;;;;;;4.10;1.73;;;;;;;36.18;31.57;91234.16;5033773;28;20484;-68
2023/06/20 08:00:58;;;;;;;2.53;1.35;;;;;;;35.85;32.32;91228.47;5033265;28;20034;-67
2023/06/20 08:03:24;;;;;;;2.38;1.75;;;;;;;36.25;31.26;91222.78;5033407;28;20483;-67
2023/06/20 08:05:50;;;;;;;1.55;1.42;;;;;;;37.27;28.91;91223.41;5033594;28;20048;-67
2023/06/20 08:08:16;;;;;;;4.28;2.15;;;;;;;37.16;30.56;91234.97;5033500;28;20034;-68
2023/06/20 08:10:41;;;;;;;4.82;1.10;;;;;;;36.64;31.13;91234.16;5033540;28;20049;-67
2023/06/20 08:13:06;;;;;;;1.42;1.33;;;;;;;37.19;29.78;91236.81;5033333;28;20024;-68
2023/06/20 08:15:32;;;;;;;1.35;1.25;;;;;;;39.88;28.92;91247.63;5033318;28;20064;-68
2023/06/20 08:17:57;;;;;;;1.38;1.23;;;;;;;40.31;27.22;91238.34;5033334;28;20032;-68
2023/06/20 08:20:22;;;;;;;1.55;1.45;;;;;;;40.93;27.58;91239.84;5033247;28;20040;-67
2023/06/20 08:22:48;;;;;;;1.70;1.60;;;;;;;41.51;26.30;91231.50;5033428;28;20064;-68
2023/06/20 08:25:13;;;;;;;2.20;1.85;;;;;;;39.22;28.47;91235.75;5033134;28;20478;-68
2023/06/20 08:27:39;;;;;;;1.60;1.50;;;;;;;37.02;31.20;91233.63;5033444;28;20078;-67
2023/06/20 08:30:05;;;;;;;1.10;1.05;;;;;;;38.12;29.76;91235.16;5033125;28;20030;-67
2023/06/20 08:32:30;;;;;;;1.58;1.40;;;;;;;38.33;30.40;91223.72;5033087;28;20049;-67
2023/06/20 08:34:56;;;;;;;2.05;1.73;;;;;;;36.66;29.43;91233.72;5032994;28;20025;-67
2023/06/20 08:37:21;;;;;;;1.58;1.48;;;;;;;38.85;29.16;91227.00;5033190;28;20116;-67
2023/06/20 08:39:47;;;;;;;2.38;2.17;;;;;;;37.00;30.27;91229.78;5032884;28;20067;-67
2023/06/20 08:42:12;;;;;;;1.58;1.48;;;;;;;36.73;30.22;91227.81;5032842;28;20502;-67
2023/06/20 08:44:38;;;;;;;3.03;1.40;;;;;;;33.50;35.40;91234.31;5032772;28;20526;-67
2023/06/20 08:47:04;;;;;;;1.98;1.88;;;;;;;32.33;36.29;91226.78;5032744;28;20082;-66
2023/06/20 08:49:29;;;;;;;1.40;1.30;;;;;;;33.24;34.58;91241.03;5032643;28;20064;-66
2023/06/20 08:52:02;;;;;;;1.58;1.48;;;;;;;34.59;31.29;91230.19;5032657;28;20029;-68
2023/06/20 08:54:31;;;;;;;1.70;1.60;;;;;;;37.31;31.26;91229.56;5032419;28;20025;-67
2023/06/20 08:56:56;;;;;;;1.75;1.63;;;;;;;34.86;33.63;91232.34;5031326;28;20419;-67
2023/06/20 08:59:22;;;;;;;1.60;1.50;;;;;;;35.79;31.68;91238.56;5032469;28;20029;-67
2023/06/20 09:01:47;;;;;;;10.48;1.73;;;;;;;33.38;34.73;91240.59;5032491;28;20474;-67
2023/06/20 09:04:13;;;;;;;3.95;1.60;;;;;;;33.65;33.50;91242.88;5032070;28;20660;-68
2023/06/20 09:06:38;;;;;;;3.75;2.28;;;;;;;31.69;35.72;91243.00;5032435;28;20025;-66
2023/06/20 09:09:14;;;;;;;2.67;2.25;;;;;;;31.05;35.74;91244.53;5032719;28;20534;-69
2023/06/20 09:11:39;;;;;;;1.25;1.15;;;;;;;32.05;36.06;91242.13;5031858;28;20029;-67
2023/06/20 09:14:05;;;;;;;0.98;0.98;;;;;;;31.57;35.55;91251.97;5032045;28;20415;-67
2023/06/20 09:16:30;;;;;;;1.63;1.52;;;;;;;31.00;36.91;91245.81;5032231;28;20029;-67
2023/06/20 09:19:00;;;;;;;3.28;1.77;;;;;;;30.75;37.80;91247.56;5033695;28;20074;-66
2023/06/20 09:21:27;;;;;;;1.55;1.45;;;;;;;30.54;37.23;91240.56;5032014;28;20040;-70
2023/06/20 09:24:03;;;;;;;14.55;2.85;;;;;;;30.09;37.85;91247.34;5007966;28;20033;-68
2023/06/20 09:26:30;;;;;;;1.10;1.00;;;;;;;29.81;37.30;91242.34;5010356;28;20033;-68
2023/06/20 09:29:17;;;;;;;0.88;0.88;;;;;;;29.90;36.83;91245.31;5012286;28;20034;-68
2023/06/20 09:31:43;;;;;;;1.05;1.05;;;;;;;31.32;37.61;91247.06;5012220;28;20022;-67
2023/06/20 09:34:10;;;;;;;1.33;1.23;;;;;;;33.77;32.93;91225.53;5011902;28;20075;-68
2023/06/20 09:36:36;;;;;;;1.65;1.55;;;;;;;33.54;34.07;91221.16;5010575;28;20030;-68
2023/06/20 09:39:01;;;;;;;2.17;1.98;;;;;;;33.66;34.55;91233.41;5012078;28;20454;-68
2023/06/20 09:41:27;;;;;;;1.70;1.38;;;;;;;33.61;33.30;91228.41;5011438;28;20573;-69
2023/06/20 09:43:52;;;;;;;4.07;1.45;;;;;;;32.80;35.31;91231.72;5011892;28;20045;-68
2023/06/20 09:46:18;;;;;;;9.63;2.85;;;;;;;31.19;37.09;91233.25;5011700;28;20853;-69
2023/06/20 09:48:44;;;;;;;1.67;1.58;;;;;;;31.42;37.18;91235.06;5011699;28;20405;-68
2023/06/20 09:51:10;;;;;;;1.23;1.17;;;;;;;32.26;35.89;91225.00;5011577;28;20060;-69
2023/06/20 09:53:46;;;;;;;3.38;2.17;;;;;;;33.56;34.78;91232.53;5011664;28;20033;-68
2023/06/20 09:56:14;;;;;;;1.85;1.75;;;;;;;34.28;34.28;91221.84;5011259;28;20088;-70
2023/06/20 09:58:46;;;;;;;3.00;1.83;;;;;;;33.39;33.95;91231.13;5011541;28;20034;-68
2023/06/20 10:01:16;;;;;;;1.75;1.65;;;;;;;30.13;36.15;91232.75;5010292;28;20025;-70
2023/06/20 10:03:42;;;;;;;0.80;0.80;;;;;;;32.12;34.77;91219.88;5011130;28;20049;-70
2023/06/20 10:06:09;;;;;;;2.45;1.55;;;;;;;33.42;33.39;91223.94;5011358;28;20036;-68
2023/06/20 10:08:35;;;;;;;1.90;1.80;;;;;;;32.48;33.38;91219.66;5011162;28;20128;-68
2023/06/20 10:11:01;;;;;;;1.38;1.27;;;;;;;33.68;33.40;91213.63;5010986;28;20101;-69
2023/06/20 10:13:28;;;;;;;1.27;1.17;;;;;;;35.90;31.82;91224.31;5011476;28;20122;-67
2023/06/20 10:15:54;;;;;;;1.55;1.45;;;;;;;36.83;30.92;91219.06;5011276;28;20510;-68
2023/06/20 10:18:40;;;;;;;1.58;1.48;;;;;;;36.03;29.11;91218.63;5010105;28;20040;-68
2023/06/20 10:21:07;;;;;;;1.33;1.23;;;;;;;34.72;31.16;91226.13;5011046;28;20117;-68
2023/06/20 10:23:37;;;;;;;1.55;1.45;;;;;;;34.73;32.58;91224.91;5010881;28;20038;-68
2023/06/20 10:26:07;;;;;;;1.38;1.13;;;;;;;35.05;30.37;91217.41;5010935;28;20029;-67
2023/06/20 10:28:35;;;;;;;1.63;1.52;;;;;;;36.77;28.76;91218.13;5010961;28;20108;-68
2023/06/20 10:31:01;;;;;;;1.45;1.33;;;;;;;36.56;29.83;91219.06;5009866;28;20052;-69
2023/06/20 10:33:35;;;;;;;1.63;1.52;;;;;;;38.52;28.44;91209.69;5009993;28;20472;-69
2023/06/20 10:36:08;;;;;;;5.78;2.85;;;;;;;37.74;28.87;91222.75;5009763;28;20380;-70
2023/06/20 10:38:39;;;;;;;1.85;1.70;;;;;;;37.95;29.80;91215.34;5009615;28;20072;-70
2023/06/20 10:41:07;;;;;;;6.47;1.98;;;;;;;37.17;29.55;91211.56;5010511;28;20022;-69
2023/06/20 10:43:55;;;;;;;2.53;1.77;;;;;;;33.09;32.30;91212.38;5010776;28;20113;-69
2023/06/20 10:46:43;;;;;;;3.88;2.10;;;;;;;34.02;33.56;91210.13;5011054;28;20026;-69
2023/06/20 10:49:10;;;;;;;1.67;1.17;;;;;;;35.61;32.14;91219.16;5011063;28;20033;-69
2023/06/20 10:51:49;;;;;;;2.25;1.23;;;;;;;37.37;30.55;91208.25;5011040;28;20060;-69
2023/06/20 10:54:16;;;;;;;3.03;1.98;;;;;;;37.99;29.97;91202.81;5010941;28;20080;-69
2023/06/20 10:56:46;;;;;;;7.15;2.35;;;;;;;34.97;29.54;91199.56;5010422;28;20026;-68
2023/06/20 10:59:14;;;;;;;1.50;1.42;;;;;;;35.21;30.21;91208.09;5010710;28;20345;-69
2023/06/20 11:01:39;;;;;;;1.55;1.40;;;;;;;35.25;32.01;91192.91;5010826;28;20033;-69
2023/06/20 11:04:09;;;;;;;1.50;1.40;;;;;;;35.79;31.47;91197.03;5010501;28;20038;-69
2023/06/20 11:06:35;;;;;;;1.05;0.90;;;;;;;35.41;31.70;91191.91;5009493;28;20033;-70
2023/06/20 11:09:00;;;;;;;1.35;1.27;;;;;;;37.77;28.25;91180.16;5010979;28;20440;-70
2023/06/20 11:11:39;;;;;;;1.92;1.35;;;;;;;36.26;30.42;91185.50;5010372;28;20030;-70
2023/06/20 11:14:21;;;;;;;1.52;1.30;;;;;;;35.12;31.45;91192.25;5010720;28;20142;-68
2023/06/20 11:16:48;;;;;;;1.80;1.50;;;;;;;36.28;31.37;91182.28;5010641;28;20457;-68
2023/06/20 11:19:14;;;;;;;1.20;1.10;;;;;;;36.96;30.30;91174.50;5010536;28;20075;-68
2023/06/20 11:21:40;;;;;;;1.25;1.00;;;;;;;36.02;29.69;91181.84;5010580;28;20108;-68
2023/06/20 11:24:06;;;;;;;1.08;1.08;;;;;;;34.49;32.21;91183.16;5010627;28;20037;-68
2023/06/20 11:26:34;;;;;;;1.88;1.67;;;;;;;36.33;30.74;91170.63;5010068;28;20029;-68
2023/06/20 11:28:59;;;;;;;1.83;1.45;;;;;;;36.30;30.47;91175.06;5010673;28;20083;-68
2023/06/20 11:31:25;;;;;;;1.75;1.65;;;;;;;38.42;28.69;91174.88;5010598;28;20462;-68